Time;durP1;ratioP1;P1;durP2;ratioP2;P2;SDS_P1;SDS_P2;PMS_P1;PMS_P2;Temp;Humidity;BMP_temperature;BMP_pressure;BME280_temperature;BME280_humidity;BME280_pressure;Samples;Min_cycle;Max_cycle;Signal;HPM_P1;HPM_P2
2023/09/03 00:01:50;;;;;;;6.78;4.72;;;11.50;95.30;;;;;;4986862;28;20614;-75
2023/09/03 00:04:16;;;;;;;6.68;4.60;;;11.40;97.40;;;;;;4991213;28;20039;-75
2023/09/03 00:06:41;;;;;;;8.95;4.78;;;11.40;95.60;;;;;;4992153;28;20057;-75
2023/09/03 00:09:07;;;;;;;6.35;4.68;;;11.30;95.60;;;;;;4988492;28;20043;-75
2023/09/03 00:11:33;;;;;;;8.27;5.00;;;11.30;98.00;;;;;;4987234;28;20044;-75
2023/09/03 00:13:58;;;;;;;7.10;5.38;;;11.20;99.60;;;;;;4972642;28;20038;-75
2023/09/03 00:16:25;;;;;;;7.68;5.72;;;11.20;99.90;;;;;;4976749;28;20034;-75
2023/09/03 00:18:51;;;;;;;8.23;6.05;;;11.20;99.90;;;;;;4985715;28;20038;-75
2023/09/03 00:21:17;;;;;;;4.35;3.40;;;11.10;99.90;;;;;;4971916;28;20436;-75
2023/09/03 00:23:42;;;;;;;6.55;4.00;;;11.10;99.90;;;;;;4978697;28;20100;-75
2023/09/03 00:26:17;;;;;;;6.50;4.55;;;11.10;99.90;;;;;;4968198;28;20072;-75
2023/09/03 00:28:42;;;;;;;4.60;3.50;;;11.00;99.90;;;;;;4961479;28;20114;-75
2023/09/03 00:31:08;;;;;;;6.63;3.58;;;11.00;99.90;;;;;;5000497;28;20649;-75
2023/09/03 00:33:35;;;;;;;5.03;2.53;;;11.00;99.90;;;;;;5006053;28;20057;-75
2023/09/03 00:36:03;;;;;;;5.53;3.40;;;11.00;99.90;;;;;;4989977;28;20551;-75
2023/09/03 00:38:28;;;;;;;5.68;3.60;;;10.90;99.90;;;;;;4988981;28;20041;-75
2023/09/03 00:40:54;;;;;;;6.18;3.78;;;10.90;99.90;;;;;;4986075;28;20042;-75
2023/09/03 00:43:20;;;;;;;5.50;3.80;;;10.90;99.90;;;;;;4970265;28;20062;-75
2023/09/03 00:45:47;;;;;;;4.97;3.65;;;10.90;99.90;;;;;;4988150;28;20505;-75
2023/09/03 00:48:17;;;;;;;6.53;4.00;;;10.90;99.90;;;;;;5000983;28;20055;-75
2023/09/03 00:50:45;;;;;;;5.88;4.15;;;10.80;99.90;;;;;;4988096;28;20145;-75
2023/09/03 00:53:11;;;;;;;6.90;3.67;;;10.80;99.90;;;;;;4987703;28;20057;-74
2023/09/03 00:55:37;;;;;;;6.70;4.18;;;10.80;99.90;;;;;;4973970;28;20043;-76
2023/09/03 00:58:06;;;;;;;7.32;4.20;;;10.80;99.90;;;;;;4987487;28;20042;-76
2023/09/03 01:00:33;;;;;;;6.45;4.53;;;10.80;99.90;;;;;;4972274;28;20571;-76
2023/09/03 01:03:00;;;;;;;8.25;4.07;;;10.80;99.90;;;;;;4979633;28;20086;-77
2023/09/03 01:05:28;;;;;;;5.72;2.92;;;10.80;99.90;;;;;;4985506;28;20074;-77
2023/09/03 01:07:57;;;;;;;4.47;2.35;;;10.80;99.90;;;;;;4983968;28;20575;-77
2023/09/03 01:10:30;;;;;;;3.30;2.17;;;10.80;99.90;;;;;;4982494;28;20049;-77
2023/09/03 01:13:09;;;;;;;3.70;2.42;;;11.00;99.90;;;;;;4987383;28;20045;-77
2023/09/03 01:15:40;;;;;;;5.25;3.72;;;10.80;99.90;;;;;;4980101;28;20058;-77
2023/09/03 01:18:19;;;;;;;4.65;3.30;;;10.70;99.90;;;;;;4968945;28;20081;-77
2023/09/03 01:20:52;;;;;;;6.70;4.60;;;10.70;99.90;;;;;;4993374;28;20042;-77
2023/09/03 01:23:49;;;;;;;7.90;4.45;;;10.70;99.90;;;;;;5003833;28;20078;-76
2023/09/03 01:26:32;;;;;;;9.60;4.97;;;10.70;99.90;;;;;;4980658;28;20089;-76
2023/09/03 01:28:59;;;;;;;7.07;4.38;;;10.70;99.90;;;;;;4969214;28;20043;-76
2023/09/03 01:31:25;;;;;;;10.43;5.55;;;10.60;99.90;;;;;;4996180;28;20069;-76
2023/09/03 01:33:51;;;;;;;8.57;5.38;;;10.60;99.90;;;;;;4995771;28;20081;-76
2023/09/03 01:36:18;;;;;;;7.72;4.82;;;10.60;99.90;;;;;;4971499;28;20073;-76
2023/09/03 01:38:44;;;;;;;9.38;6.05;;;10.60;99.90;;;;;;4970257;28;20126;-76
2023/09/03 01:41:10;;;;;;;13.13;5.90;;;10.60;99.90;;;;;;4987478;28;20134;-76
2023/09/03 01:43:36;;;;;;;7.60;4.72;;;10.60;99.90;;;;;;4967718;28;20207;-76
2023/09/03 01:46:07;;;;;;;3.55;2.72;;;10.60;99.90;;;;;;4983421;28;20038;-76
2023/09/03 01:48:51;;;;;;;5.05;3.03;;;10.70;99.90;;;;;;5003835;28;20584;-76
2023/09/03 01:51:37;;;;;;;5.90;2.83;;;10.70;99.90;;;;;;4979424;28;20039;-76
2023/09/03 01:54:40;;;;;;;6.90;4.47;;;10.70;99.90;;;;;;4978508;28;20050;-76
2023/09/03 01:57:16;;;;;;;7.88;4.22;;;10.80;99.90;;;;;;4971797;28;20046;-76
2023/09/03 01:59:45;;;;;;;6.47;4.30;;;10.80;99.90;;;;;;4971727;28;20397;-77
2023/09/03 02:02:12;;;;;;;6.90;4.30;;;10.80;99.90;;;;;;4987541;28;20520;-77
2023/09/03 02:04:39;;;;;;;6.13;4.28;;;10.80;99.90;;;;;;5001448;28;20455;-77
2023/09/03 02:07:04;;;;;;;7.97;4.57;;;10.70;99.90;;;;;;4968935;28;20187;-77
2023/09/03 02:09:30;;;;;;;7.63;5.00;;;10.70;99.90;;;;;;5001032;28;20134;-77
2023/09/03 02:11:57;;;;;;;8.63;5.40;;;10.70;99.90;;;;;;5002160;28;20035;-77
2023/09/03 02:14:22;;;;;;;7.38;5.03;;;10.70;99.90;;;;;;4968424;28;20043;-76
2023/09/03 02:16:49;;;;;;;8.95;5.60;;;10.70;99.90;;;;;;4972554;28;20041;-77
2023/09/03 02:19:15;;;;;;;9.23;5.60;;;10.70;99.90;;;;;;4984468;28;20073;-77
2023/09/03 02:21:40;;;;;;;8.30;5.18;;;10.70;99.90;;;;;;4986139;28;20176;-77
2023/09/03 02:24:06;;;;;;;10.32;5.43;;;10.80;99.90;;;;;;5001547;28;20029;-76
2023/09/03 02:26:32;;;;;;;8.23;5.00;;;10.70;99.90;;;;;;4991652;28;20039;-77
2023/09/03 02:28:57;;;;;;;9.55;6.03;;;10.70;99.90;;;;;;4986668;28;20035;-77
2023/09/03 02:31:23;;;;;;;11.00;5.55;;;10.60;99.90;;;;;;4969121;28;20066;-77
2023/09/03 02:33:49;;;;;;;8.07;4.80;;;10.60;99.90;;;;;;4980043;28;20137;-76
2023/09/03 02:36:15;;;;;;;6.85;4.65;;;10.60;99.90;;;;;;4991737;28;20129;-76
2023/09/03 02:38:41;;;;;;;10.95;4.85;;;10.60;99.90;;;;;;4987803;28;20045;-76
2023/09/03 02:41:06;;;;;;;5.50;3.47;;;10.60;99.90;;;;;;4969249;28;20034;-76
2023/09/03 02:43:32;;;;;;;5.32;3.05;;;10.40;99.90;;;;;;4973556;28;20149;-76
2023/09/03 02:45:58;;;;;;;4.40;3.10;;;10.50;99.90;;;;;;4990684;28;20558;-76
2023/09/03 02:48:23;;;;;;;8.00;3.30;;;10.50;99.90;;;;;;4992003;28;20073;-76
2023/09/03 02:50:49;;;;;;;8.15;3.92;;;10.40;99.90;;;;;;4983865;28;20069;-76
2023/09/03 02:53:14;;;;;;;5.78;3.95;;;10.40;99.90;;;;;;4994751;28;20641;-76
2023/09/03 02:55:40;;;;;;;5.38;3.42;;;10.40;99.90;;;;;;4982821;28;20053;-75
2023/09/03 02:58:05;;;;;;;5.35;3.35;;;10.40;99.90;;;;;;4982995;28;20030;-76
2023/09/03 03:00:33;;;;;;;5.93;4.03;;;10.40;99.90;;;;;;4964617;28;20320;-76
2023/09/03 03:02:59;;;;;;;5.57;3.60;;;10.40;99.90;;;;;;4987197;28;20046;-76
2023/09/03 03:05:25;;;;;;;5.10;3.58;;;10.30;99.90;;;;;;4990122;28;20161;-76
2023/09/03 03:07:50;;;;;;;4.60;3.28;;;10.20;99.90;;;;;;4989278;28;20053;-76
2023/09/03 03:10:16;;;;;;;5.28;3.33;;;10.20;99.90;;;;;;4978742;28;20121;-76
2023/09/03 03:12:45;;;;;;;5.93;3.72;;;10.20;99.90;;;;;;5006123;28;20042;-76
2023/09/03 03:15:10;;;;;;;6.78;3.70;;;10.20;99.90;;;;;;4987342;28;20042;-76
2023/09/03 03:17:36;;;;;;;7.97;4.18;;;10.10;99.90;;;;;;4995550;28;20065;-76
2023/09/03 03:20:03;;;;;;;8.45;4.57;;;10.00;99.90;;;;;;5002176;28;20857;-76
2023/09/03 03:22:28;;;;;;;6.60;4.72;;;10.00;99.90;;;;;;4988886;28;20042;-76
2023/09/03 03:24:54;;;;;;;5.50;4.15;;;10.00;99.90;;;;;;4988618;28;20045;-76
2023/09/03 03:27:20;;;;;;;7.78;4.80;;;10.00;99.90;;;;;;5012087;28;20099;-76
2023/09/03 03:29:46;;;;;;;7.65;4.32;;;10.00;99.90;;;;;;4988246;28;20058;-77
2023/09/03 03:32:11;;;;;;;12.63;5.43;;;9.90;99.90;;;;;;5005400;28;20051;-76
2023/09/03 03:34:41;;;;;;;7.28;4.47;;;9.80;99.90;;;;;;4992298;28;20034;-76
2023/09/03 03:37:06;;;;;;;6.60;4.47;;;9.80;99.90;;;;;;5006451;28;20458;-76
2023/09/03 03:39:32;;;;;;;6.55;4.18;;;9.70;99.90;;;;;;4988042;28;20121;-76
2023/09/03 03:41:58;;;;;;;7.72;3.80;;;9.70;99.90;;;;;;4987127;28;20489;-76
2023/09/03 03:44:23;;;;;;;6.55;4.35;;;9.70;99.90;;;;;;4995625;28;20746;-77
2023/09/03 03:46:49;;;;;;;6.43;3.33;;;9.70;99.90;;;;;;4974202;28;20042;-77
2023/09/03 03:49:14;;;;;;;6.30;3.67;;;9.60;99.90;;;;;;4987953;28;20053;-77
2023/09/03 03:51:40;;;;;;;5.20;3.42;;;9.60;99.90;;;;;;4986979;28;20069;-77
2023/09/03 03:54:06;;;;;;;5.70;3.47;;;9.70;99.90;;;;;;5002251;28;20031;-77
2023/09/03 03:56:32;;;;;;;8.38;3.92;;;9.60;99.90;;;;;;5005462;28;20069;-77
2023/09/03 03:58:57;;;;;;;7.45;4.15;;;9.70;99.90;;;;;;5004849;28;20036;-77
2023/09/03 04:01:23;;;;;;;6.35;4.05;;;9.70;99.90;;;;;;5009126;28;20443;-76
2023/09/03 04:03:54;;;;;;;6.90;4.43;;;9.90;99.90;;;;;;4985608;28;20054;-76
2023/09/03 04:06:20;;;;;;;6.65;4.18;;;9.80;99.90;;;;;;4991702;28;20046;-76
2023/09/03 04:08:46;;;;;;;7.63;4.53;;;9.80;99.90;;;;;;4989265;28;20042;-76
2023/09/03 04:11:14;;;;;;;6.40;3.92;;;9.80;99.90;;;;;;5003270;28;20042;-76
2023/09/03 04:13:40;;;;;;;6.97;4.00;;;9.80;99.90;;;;;;4987378;28;20093;-76
2023/09/03 04:16:17;;;;;;;5.90;3.67;;;9.80;99.90;;;;;;5004490;28;20049;-76
2023/09/03 04:18:44;;;;;;;4.25;2.63;;;9.80;99.90;;;;;;4968664;28;20044;-76
2023/09/03 04:21:10;;;;;;;3.30;2.60;;;9.80;99.90;;;;;;4986224;28;20049;-76
2023/09/03 04:23:36;;;;;;;3.08;2.50;;;9.70;99.90;;;;;;5004988;28;20044;-76
2023/09/03 04:26:02;;;;;;;3.55;2.20;;;9.70;99.90;;;;;;5001094;28;20338;-77
2023/09/03 04:28:28;;;;;;;2.90;2.40;;;9.70;99.90;;;;;;5004633;28;20038;-76
2023/09/03 04:31:03;;;;;;;3.30;2.03;;;9.60;99.90;;;;;;4967462;28;20420;-76
2023/09/03 04:33:29;;;;;;;3.47;2.60;;;9.60;99.90;;;;;;5003383;28;20501;-76
2023/09/03 04:36:00;;;;;;;3.30;2.40;;;9.60;99.90;;;;;;4987731;28;20444;-76
2023/09/03 04:38:27;;;;;;;4.45;2.60;;;9.60;99.90;;;;;;4971388;28;20049;-76
2023/09/03 04:40:53;;;;;;;5.15;3.20;;;9.60;99.90;;;;;;4991555;28;20046;-77
2023/09/03 04:43:19;;;;;;;5.25;2.92;;;9.50;99.90;;;;;;4991005;28;20065;-77
2023/09/03 04:45:46;;;;;;;3.58;2.50;;;9.50;99.90;;;;;;4986621;28;20085;-77
2023/09/03 04:48:13;;;;;;;3.15;2.08;;;9.50;99.90;;;;;;4971396;28;20053;-76
2023/09/03 04:50:39;;;;;;;6.00;2.85;;;9.70;99.90;;;;;;4987182;28;20489;-77
2023/09/03 04:53:04;;;;;;;4.00;2.55;;;9.60;99.90;;;;;;4992219;28;20039;-76
2023/09/03 04:55:34;;;;;;;5.50;2.90;;;9.60;99.90;;;;;;4982714;28;20057;-76
2023/09/03 04:58:00;;;;;;;4.22;2.40;;;9.50;99.90;;;;;;4992596;28;20069;-77
2023/09/03 05:00:27;;;;;;;3.92;2.75;;;9.60;99.90;;;;;;4991782;28;20045;-76
2023/09/03 05:02:53;;;;;;;4.70;3.15;;;9.60;99.90;;;;;;4983557;28;20041;-76
2023/09/03 05:05:18;;;;;;;6.75;3.60;;;9.60;99.90;;;;;;4989690;28;20437;-76
2023/09/03 05:07:46;;;;;;;4.82;3.03;;;9.70;99.90;;;;;;4989595;28;20047;-76
2023/09/03 05:10:12;;;;;;;4.90;3.20;;;9.70;99.90;;;;;;4976551;28;20045;-76
2023/09/03 05:12:40;;;;;;;5.07;3.10;;;9.70;99.90;;;;;;4988260;28;20038;-76
2023/09/03 05:15:08;;;;;;;4.57;3.20;;;9.70;99.90;;;;;;4988450;28;20057;-77
2023/09/03 05:17:33;;;;;;;4.28;3.08;;;9.80;99.90;;;;;;4993062;28;20088;-76
2023/09/03 05:19:59;;;;;;;5.00;3.03;;;9.80;99.90;;;;;;4971356;28;20050;-76
2023/09/03 05:22:24;;;;;;;5.47;3.45;;;9.80;99.90;;;;;;5003588;28;20115;-76
2023/09/03 05:24:50;;;;;;;4.38;3.13;;;9.80;99.90;;;;;;4985985;28;20046;-76
2023/09/03 05:27:16;;;;;;;5.45;3.42;;;9.80;99.90;;;;;;4993344;28;20664;-76
2023/09/03 05:29:41;;;;;;;5.95;3.70;;;9.90;99.90;;;;;;4997768;28;20193;-76
2023/09/03 05:32:07;;;;;;;7.45;3.80;;;9.90;99.90;;;;;;5004907;28;20082;-76
2023/09/03 05:34:33;;;;;;;5.20;3.50;;;10.00;99.90;;;;;;4988651;28;20439;-76
2023/09/03 05:36:58;;;;;;;6.10;4.00;;;10.00;99.90;;;;;;5003657;28;20042;-76
2023/09/03 05:39:25;;;;;;;7.05;3.90;;;10.00;99.90;;;;;;5003338;28;20113;-76
2023/09/03 05:41:51;;;;;;;5.20;4.07;;;10.10;99.90;;;;;;5002560;28;20052;-76
2023/09/03 05:44:16;;;;;;;5.50;3.88;;;10.10;99.90;;;;;;4968480;28;20041;-76
2023/09/03 05:46:43;;;;;;;6.55;3.80;;;10.20;99.90;;;;;;4993116;28;20477;-76
2023/09/03 05:49:09;;;;;;;6.05;4.22;;;10.30;99.90;;;;;;4989992;28;20050;-76
2023/09/03 05:51:34;;;;;;;6.53;4.30;;;10.50;99.90;;;;;;4997620;28;20730;-75
2023/09/03 05:54:00;;;;;;;5.30;3.97;;;10.60;99.90;;;;;;4990057;28;20049;-76
2023/09/03 05:56:26;;;;;;;6.20;4.32;;;10.70;99.90;;;;;;4976077;28;20404;-77
2023/09/03 05:58:51;;;;;;;7.38;4.70;;;10.90;99.90;;;;;;4989806;28;20042;-77
2023/09/03 06:01:17;;;;;;;6.95;4.30;;;11.10;99.90;;;;;;4977358;28;20038;-76
2023/09/03 06:03:43;;;;;;;5.38;4.00;;;11.20;99.90;;;;;;4984013;28;20102;-77
2023/09/03 06:06:11;;;;;;;4.57;3.63;;;11.30;99.90;;;;;;4993403;28;20030;-77
2023/09/03 06:08:37;;;;;;;5.20;3.72;;;11.40;99.90;;;;;;4986182;28;20037;-77
2023/09/03 06:11:03;;;;;;;5.72;4.13;;;11.50;99.90;;;;;;4987010;28;20572;-77
2023/09/03 06:13:30;;;;;;;4.55;3.67;;;11.60;99.90;;;;;;4965987;28;20046;-77
2023/09/03 06:15:57;;;;;;;5.03;3.88;;;11.70;99.90;;;;;;4977165;28;20061;-76
2023/09/03 06:18:24;;;;;;;5.95;3.88;;;11.90;99.90;;;;;;4981943;28;20043;-77
2023/09/03 06:20:50;;;;;;;6.72;4.00;;;12.00;99.90;;;;;;4975644;28;20034;-76
2023/09/03 06:23:18;;;;;;;6.00;4.30;;;12.10;99.90;;;;;;4984634;28;20053;-77
2023/09/03 06:25:45;;;;;;;5.03;4.10;;;12.20;99.90;;;;;;4968156;28;20042;-77
2023/09/03 06:28:11;;;;;;;5.50;3.97;;;12.20;99.90;;;;;;4980951;28;20054;-76
2023/09/03 06:30:36;;;;;;;5.53;4.05;;;12.30;99.90;;;;;;4969955;28;20061;-76
2023/09/03 06:33:02;;;;;;;6.47;3.80;;;12.40;99.90;;;;;;4984110;28;20115;-76
2023/09/03 06:35:28;;;;;;;5.45;3.92;;;12.50;99.90;;;;;;4991775;28;20089;-76
2023/09/03 06:37:55;;;;;;;5.25;4.35;;;12.60;99.90;;;;;;4971774;28;20120;-75
2023/09/03 06:40:22;;;;;;;4.75;3.60;;;12.60;99.90;;;;;;4998552;28;20049;-75
2023/09/03 06:42:48;;;;;;;4.80;3.80;;;12.70;99.90;;;;;;4991476;28;20050;-75
2023/09/03 06:45:13;;;;;;;5.88;4.22;;;12.70;99.90;;;;;;4987121;28;20047;-75
2023/09/03 06:47:39;;;;;;;5.75;4.00;;;12.90;99.90;;;;;;4998465;28;20382;-75
2023/09/03 06:50:06;;;;;;;4.53;3.95;;;13.00;99.90;;;;;;4985563;28;20034;-75
2023/09/03 06:52:32;;;;;;;7.47;4.60;;;13.10;99.90;;;;;;4983164;28;20065;-75
2023/09/03 06:54:58;;;;;;;5.55;4.35;;;13.20;99.90;;;;;;4994628;28;20468;-75
2023/09/03 06:57:24;;;;;;;4.97;3.97;;;13.30;99.90;;;;;;4999182;28;20038;-75
2023/09/03 06:59:50;;;;;;;7.95;4.72;;;13.40;99.90;;;;;;4984517;28;20246;-74
2023/09/03 07:02:15;;;;;;;5.00;4.07;;;13.50;99.90;;;;;;4988493;28;20069;-75
2023/09/03 07:04:41;;;;;;;6.38;3.83;;;13.60;99.90;;;;;;5001832;28;20050;-75
2023/09/03 07:07:08;;;;;;;5.00;3.47;;;13.60;99.90;;;;;;4968923;28;20058;-75
2023/09/03 07:09:34;;;;;;;5.47;3.28;;;13.70;99.90;;;;;;4984049;28;20046;-75
2023/09/03 07:12:00;;;;;;;5.05;3.20;;;13.80;99.90;;;;;;4976014;28;20049;-75
2023/09/03 07:14:25;;;;;;;5.95;3.53;;;13.80;99.90;;;;;;4987367;28;20038;-76
2023/09/03 07:16:51;;;;;;;7.25;3.40;;;13.80;99.90;;;;;;4978935;28;20050;-76
2023/09/03 07:19:18;;;;;;;5.85;3.38;;;13.90;99.90;;;;;;4967965;28;20144;-76
2023/09/03 07:21:43;;;;;;;5.25;3.40;;;14.00;99.90;;;;;;4984052;28;20552;-76
2023/09/03 07:24:09;;;;;;;6.35;3.00;;;14.00;99.90;;;;;;4985900;28;20058;-75
2023/09/03 07:26:34;;;;;;;5.15;2.85;;;14.10;99.90;;;;;;4984055;28;20065;-75
2023/09/03 07:29:01;;;;;;;5.85;2.88;;;14.20;99.90;;;;;;4982186;28;20050;-75
2023/09/03 07:31:26;;;;;;;3.08;2.53;;;14.30;99.90;;;;;;4984936;28;20057;-75
2023/09/03 07:33:52;;;;;;;4.13;2.63;;;14.40;99.90;;;;;;4985503;28;20046;-75
2023/09/03 07:36:18;;;;;;;5.60;2.50;;;14.50;99.90;;;;;;4966785;28;20403;-76
2023/09/03 07:38:43;;;;;;;3.50;2.60;;;14.60;99.90;;;;;;4976755;28;20053;-75
2023/09/03 07:41:09;;;;;;;3.90;2.47;;;14.80;99.90;;;;;;4967816;28;20062;-75
2023/09/03 07:43:35;;;;;;;2.63;2.42;;;14.90;99.90;;;;;;4985475;28;20386;-75
2023/09/03 07:46:01;;;;;;;3.80;2.55;;;15.10;99.90;;;;;;4989534;28;20046;-75
2023/09/03 07:48:26;;;;;;;3.63;2.70;;;15.20;99.90;;;;;;4979232;28;20042;-74
2023/09/03 07:50:52;;;;;;;4.85;2.67;;;15.40;99.90;;;;;;4986790;28;20117;-75
2023/09/03 07:53:18;;;;;;;6.38;2.70;;;15.50;99.90;;;;;;4975735;28;20510;-75
2023/09/03 07:55:44;;;;;;;3.70;3.10;;;15.60;99.90;;;;;;4976177;28;20045;-75
2023/09/03 07:58:09;;;;;;;3.38;2.70;;;15.80;99.90;;;;;;4988667;28;20038;-74
2023/09/03 08:00:35;;;;;;;4.75;2.83;;;16.00;99.90;;;;;;4971162;28;20116;-74
2023/09/03 08:03:01;;;;;;;4.32;2.47;;;16.10;99.90;;;;;;4981859;28;20046;-75
2023/09/03 08:05:27;;;;;;;4.40;3.28;;;16.20;99.90;;;;;;4985672;28;20049;-74
2023/09/03 08:07:52;;;;;;;5.65;3.17;;;16.30;99.90;;;;;;5002085;28;20526;-75
2023/09/03 08:10:18;;;;;;;4.30;3.20;;;16.40;99.90;;;;;;4974136;28;20050;-75
2023/09/03 08:12:44;;;;;;;3.55;3.08;;;16.60;95.60;;;;;;4972400;28;20042;-75
2023/09/03 08:15:10;;;;;;;4.43;2.88;;;16.80;93.40;;;;;;4977444;28;20576;-75
2023/09/03 08:17:36;;;;;;;3.67;2.90;;;16.90;89.80;;;;;;4980418;28;20049;-76
2023/09/03 08:20:03;;;;;;;4.10;2.97;;;17.10;71.30;;;;;;4988601;28;20046;-76
2023/09/03 08:22:29;;;;;;;3.58;2.25;;;17.20;45.40;;;;;;4988769;28;20039;-76
2023/09/03 08:24:54;;;;;;;3.83;2.03;;;17.40;26.60;;;;;;5001074;28;20640;-76
2023/09/03 08:27:20;;;;;;;2.45;1.90;;;17.40;6.90;;;;;;4995437;28;20572;-76
2023/09/03 08:29:46;;;;;;;4.55;2.38;;;17.50;1.00;;;;;;5001774;28;20497;-76
2023/09/03 08:32:12;;;;;;;2.25;1.58;;;17.60;1.00;;;;;;4986459;28;20055;-76
2023/09/03 08:34:37;;;;;;;2.78;2.13;;;17.70;1.00;;;;;;4965241;28;20067;-76
2023/09/03 08:37:03;;;;;;;4.20;2.17;;;17.80;1.00;;;;;;4984393;28;20538;-76
2023/09/03 08:39:29;;;;;;;4.93;1.92;;;17.90;1.00;;;;;;4987579;28;20053;-72
2023/09/03 08:41:57;;;;;;;2.58;1.60;;;18.00;99.90;;;;;;4983361;28;20042;-74
2023/09/03 08:44:36;;;;;;;2.17;1.75;;;18.10;99.90;;;;;;4986754;28;20042;-75
2023/09/03 08:47:03;;;;;;;2.08;1.70;;;18.30;99.90;;;;;;4982614;28;20109;-75
2023/09/03 08:49:31;;;;;;;3.58;1.92;;;18.40;99.90;;;;;;4985784;28;20030;-76
2023/09/03 08:51:58;;;;;;;1.80;1.50;;;18.50;99.90;;;;;;4986097;28;20117;-76
2023/09/03 08:54:24;;;;;;;1.90;1.20;;;18.60;99.90;;;;;;4987081;28;20045;-75
2023/09/03 08:56:50;;;;;;;1.58;1.42;;;18.60;99.90;;;;;;4987149;28;20081;-75
2023/09/03 08:59:15;;;;;;;1.63;1.48;;;18.70;99.90;;;;;;4987566;28;20066;-75
2023/09/03 09:01:44;;;;;;;2.80;1.83;;;18.70;93.60;;;;;;4981803;28;20512;-74
2023/09/03 09:04:11;;;;;;;2.80;1.55;;;18.80;61.60;;;;;;4986982;28;20523;-74
2023/09/03 09:06:39;;;;;;;2.55;1.50;;;18.90;1.00;;;;;;4987080;28;20049;-74
2023/09/03 09:09:05;;;;;;;2.17;1.23;;;19.00;1.00;;;;;;4982647;28;20049;-74
2023/09/03 09:11:37;;;;;;;4.28;1.42;;;19.10;1.00;;;;;;4979263;28;20491;-74
2023/09/03 09:14:15;;;;;;;3.45;1.38;;;19.30;1.00;;;;;;5002559;28;20448;-75
2023/09/03 09:16:41;;;;;;;2.08;1.42;;;19.50;99.90;;;;;;4969547;28;20034;-75
2023/09/03 09:19:06;;;;;;;3.67;1.77;;;19.80;99.90;;;;;;4986736;28;20471;-74
2023/09/03 09:21:32;;;;;;;2.67;1.33;;;20.00;99.90;;;;;;4965623;28;20046;-74
2023/09/03 09:24:05;;;;;;;4.00;1.30;;;20.30;99.90;;;;;;4985289;28;20054;-74
2023/09/03 09:26:32;;;;;;;1.85;1.20;;;20.60;99.90;;;;;;4970691;28;20089;-74
2023/09/03 09:29:02;;;;;;;2.40;1.40;;;20.90;99.90;;;;;;4986142;28;20114;-73
2023/09/03 09:31:34;;;;;;;1.55;1.15;;;21.20;99.90;;;;;;4985067;28;20060;-74
2023/09/03 09:34:10;;;;;;;2.60;1.10;;;21.60;99.90;;;;;;4958747;28;20042;-74
2023/09/03 09:36:36;;;;;;;1.25;0.93;;;22.20;98.20;;;;;;4982590;28;20045;-74
2023/09/03 09:39:06;;;;;;;3.00;1.40;;;22.70;35.30;;;;;;4973145;28;20177;-74
2023/09/03 09:41:37;;;;;;;1.27;0.90;;;23.20;1.00;;;;;;4992036;28;20572;-74
2023/09/03 09:44:12;;;;;;;1.80;1.10;;;23.60;1.00;;;;;;4984559;28;20041;-74
2023/09/03 09:46:38;;;;;;;2.30;0.82;;;24.00;1.00;;;;;;4964877;28;20038;-75
2023/09/03 09:49:05;;;;;;;1.10;0.93;;;24.40;1.00;;;;;;4983860;28;20037;-74
2023/09/03 09:51:31;;;;;;;1.85;1.05;;;24.70;1.00;;;;;;4998385;28;20070;-74
2023/09/03 09:53:59;;;;;;;2.25;1.02;;;24.80;1.00;;;;;;4985110;28;20128;-74
2023/09/03 09:56:30;;;;;;;2.35;1.20;;;25.00;1.00;;;;;;4983614;28;20038;-74
2023/09/03 09:58:59;;;;;;;1.98;0.90;;;25.30;1.00;;;;;;4982766;28;20038;-74
2023/09/03 10:01:27;;;;;;;0.80;0.60;;;25.70;1.00;;;;;;4984250;28;20654;-74
2023/09/03 10:03:54;;;;;;;1.85;0.98;;;25.90;1.00;;;;;;4982391;28;20889;-74
2023/09/03 10:06:21;;;;;;;2.38;0.88;;;25.90;1.00;;;;;;4983715;28;20139;-75
2023/09/03 10:08:50;;;;;;;2.25;1.00;;;26.30;1.00;;;;;;4987083;28;20363;-75
2023/09/03 10:11:17;;;;;;;1.75;0.88;;;26.70;1.00;;;;;;5001032;28;20104;-74
2023/09/03 10:13:44;;;;;;;1.38;1.00;;;27.40;1.00;;;;;;5000176;28;20516;-74
2023/09/03 10:16:10;;;;;;;1.33;0.80;;;27.70;1.00;;;;;;4984141;28;20046;-74
2023/09/03 10:18:39;;;;;;;1.58;1.10;;;27.80;1.00;;;;;;5000637;28;20109;-75
2023/09/03 10:21:09;;;;;;;1.45;0.73;;;28.10;1.00;;;;;;4965057;28;20045;-74
2023/09/03 10:23:50;;;;;;;1.52;0.90;;;28.40;1.00;;;;;;4982374;28;20046;-74
2023/09/03 10:26:22;;;;;;;0.85;0.82;;;28.40;1.00;;;;;;4979573;28;20097;-74
2023/09/03 10:28:51;;;;;;;1.90;1.00;;;28.30;1.00;;;;;;4992840;28;20397;-74
2023/09/03 10:31:18;;;;;;;1.55;0.90;;;28.10;1.00;;;;;;4988616;28;20057;-74
2023/09/03 10:33:44;;;;;;;1.65;1.10;;;27.80;1.00;;;;;;4991391;28;20046;-74
2023/09/03 10:36:18;;;;;;;1.13;0.68;;;28.00;1.00;;;;;;4972865;28;20030;-74
2023/09/03 10:38:47;;;;;;;1.48;1.20;;;28.80;1.00;;;;;;4976886;28;20549;-74
2023/09/03 10:41:21;;;;;;;1.35;0.77;;;29.90;1.00;;;;;;4984797;28;20049;-74
2023/09/03 10:43:50;;;;;;;0.80;0.55;;;30.20;1.00;;;;;;4966592;28;20034;-74
2023/09/03 10:46:15;;;;;;;0.95;0.80;;;30.50;1.00;;;;;;4982233;28;20491;-72
2023/09/03 10:48:54;;;;;;;1.30;0.70;;;30.90;1.00;;;;;;4967311;28;20130;-74
2023/09/03 10:51:37;;;;;;;2.05;1.05;;;31.20;1.00;;;;;;4969448;28;20413;-75
2023/09/03 10:54:24;;;;;;;2.70;0.73;;;31.10;1.00;;;;;;4984844;28;20528;-75
2023/09/03 10:57:06;;;;;;;1.42;0.90;;;31.30;1.00;;;;;;5000714;28;20727;-75
2023/09/03 10:59:57;;;;;;;1.60;0.68;;;31.50;1.00;;;;;;4969216;28;20093;-74
2023/09/03 11:02:30;;;;;;;0.63;0.47;;;32.10;1.00;;;;;;4972113;28;20049;-75
2023/09/03 11:05:09;;;;;;;1.13;0.90;;;32.50;1.00;;;;;;4991227;28;20416;-75
2023/09/03 11:07:35;;;;;;;1.33;0.65;;;32.30;1.00;;;;;;4994714;28;20057;-75
2023/09/03 11:10:27;;;;;;;1.67;0.80;;;32.60;1.00;;;;;;4973146;28;20031;-75
2023/09/03 11:12:54;;;;;;;1.80;0.70;;;32.80;1.00;;;;;;4976793;28;20082;-74
2023/09/03 11:15:20;;;;;;;1.50;0.70;;;31.90;1.00;;;;;;4999873;28;20397;-75
2023/09/03 11:17:53;;;;;;;0.95;0.63;;;31.70;1.00;;;;;;4985878;28;20042;-74
2023/09/03 11:20:34;;;;;;;1.23;0.60;;;31.90;1.00;;;;;;4985222;28;20049;-75
2023/09/03 11:23:03;;;;;;;0.50;0.50;;;32.30;1.00;;;;;;4966428;28;20034;-75
2023/09/03 11:25:37;;;;;;;1.00;0.50;;;32.10;1.00;;;;;;4979849;28;20043;-75
2023/09/03 11:28:04;;;;;;;0.95;0.60;;;32.00;1.00;;;;;;4983164;28;20053;-73
2023/09/03 11:30:30;;;;;;;2.13;0.70;;;32.10;1.00;;;;;;4995929;28;20076;-75
2023/09/03 11:32:56;;;;;;;1.00;0.60;;;32.00;1.00;;;;;;5001698;28;20579;-74
2023/09/03 11:35:22;;;;;;;0.98;0.70;;;32.60;1.00;;;;;;4998598;28;20050;-74
2023/09/03 11:37:49;;;;;;;1.58;0.60;;;33.30;1.00;;;;;;4995631;28;20037;-75
2023/09/03 11:40:16;;;;;;;0.70;0.50;;;33.60;1.00;;;;;;4983274;28;20046;-74
2023/09/03 11:42:48;;;;;;;0.82;0.63;;;33.20;1.00;;;;;;4991951;28;20054;-74
2023/09/03 11:45:14;;;;;;;2.45;0.60;;;32.60;1.00;;;;;;4971611;28;20034;-74
2023/09/03 11:47:46;;;;;;;0.98;0.60;;;32.90;1.00;;;;;;4989153;28;20053;-75
2023/09/03 11:50:13;;;;;;;0.65;0.47;;;33.50;1.00;;;;;;4989211;28;20114;-74
2023/09/03 11:52:40;;;;;;;0.68;0.57;;;33.70;1.00;;;;;;4997564;28;20042;-75
2023/09/03 11:55:06;;;;;;;1.88;0.50;;;33.60;1.00;;;;;;4982998;28;20043;-75
2023/09/03 11:57:36;;;;;;;1.27;0.45;;;34.00;1.00;;;;;;4981329;28;20038;-74
2023/09/03 12:00:03;;;;;;;0.73;0.47;;;34.50;1.00;;;;;;4989337;28;20552;-74
2023/09/03 12:02:30;;;;;;;1.25;0.50;;;34.50;1.00;;;;;;4974732;28;20042;-74
2023/09/03 12:04:56;;;;;;;1.13;0.38;;;34.60;1.00;;;;;;4997668;28;20039;-75
2023/09/03 12:07:21;;;;;;;0.95;0.60;;;34.60;1.00;;;;;;4984617;28;20085;-75
2023/09/03 12:09:51;;;;;;;1.05;0.50;;;34.70;1.00;;;;;;4980464;28;20038;-75
2023/09/03 12:12:18;;;;;;;1.92;0.57;;;35.10;1.00;;;;;;4975062;28;20158;-75
2023/09/03 12:14:43;;;;;;;0.57;0.50;;;35.00;1.00;;;;;;5000439;28;20088;-75
2023/09/03 12:17:09;;;;;;;0.98;0.65;;;35.40;1.00;;;;;;4993529;28;20050;-75
2023/09/03 12:19:41;;;;;;;1.00;0.45;;;35.80;1.00;;;;;;4989624;28;20631;-75
2023/09/03 12:22:07;;;;;;;0.65;0.50;;;36.10;1.00;;;;;;4979923;28;20038;-75
2023/09/03 12:24:33;;;;;;;1.25;0.40;;;36.50;1.00;;;;;;4979681;28;20046;-75
2023/09/03 12:27:04;;;;;;;1.80;0.65;;;36.50;1.00;;;;;;4980518;28;20117;-75
2023/09/03 12:29:38;;;;;;;0.73;0.47;;;36.20;1.00;;;;;;4981470;28;20509;-75
2023/09/03 12:32:05;;;;;;;0.98;0.57;;;36.20;1.00;;;;;;4976265;28;20050;-74
2023/09/03 12:34:39;;;;;;;1.27;0.70;;;36.30;1.00;;;;;;4986504;28;20181;-75
2023/09/03 12:37:06;;;;;;;0.80;0.60;;;36.30;1.00;;;;;;4986162;28;20038;-75
2023/09/03 12:39:31;;;;;;;0.52;0.45;;;35.50;1.00;;;;;;4988705;28;20042;-74
2023/09/03 12:41:58;;;;;;;0.50;0.40;;;35.50;1.00;;;;;;5003431;28;20069;-74
2023/09/03 12:44:26;;;;;;;0.90;0.50;;;35.40;1.00;;;;;;4981990;28;20046;-74
2023/09/03 12:46:52;;;;;;;1.02;0.70;;;35.60;1.00;;;;;;4972373;28;20046;-75
2023/09/03 12:49:18;;;;;;;0.75;0.50;;;35.70;1.00;;;;;;4987638;28;20141;-75
2023/09/03 12:51:44;;;;;;;0.98;0.30;;;35.90;1.00;;;;;;4982920;28;20096;-75
2023/09/03 12:54:09;;;;;;;1.15;0.60;;;35.70;1.00;;;;;;4983418;28;20050;-75